Evergreen Park, Illinois
Current Conditions -  °F | °C
As of 3:53 AM on Thursday 23 Oct 2014 (Local Time) from KMDW Reporting Station
Clear Clear  
Wind Chill: 39°   Ceiling: Unl
Heat Index: 43°   Visibility: 8mi
Dew Point: 38°   Wind: 7mph
Humidity: 82%   Direction: 160°SSE
Pressure: 30.23"   Gusts: NA
Location:  41.72°N, 87.7°W
Report Text: KMDW 230853Z 16006KT 8SM CLR 06/03 A3023 RMK AO2 SLP240 T00610033 56009
Loading
Personal Weather Stations






























Interactive Weather Map
Tropical Storm Tracking
New forecast layout! Learn more

10-Day Weather Forecast

Advertisements
Track Severe Weather on mobile